Time;durP1;ratioP1;P1;durP2;ratioP2;P2;SDS_P1;SDS_P2;PMS_P1;PMS_P2;Temp;Humidity;BMP_temperature;BMP_pressure;BME280_temperature;BME280_humidity;BME280_pressure;Samples;Min_cycle;Max_cycle;Signal;HPM_P1;HPM_P2
2022/05/24 00:00:12;;;;;;;25.27;23.97;;;19.30;79.70;;;;;;5076085;28;20450;-71
2022/05/24 00:02:39;;;;;;;24.63;23.43;;;18.80;81.40;;;;;;5071604;28;21049;-71
2022/05/24 00:05:06;;;;;;;24.80;23.50;;;18.80;81.70;;;;;;5081706;28;20548;-72
2022/05/24 00:07:33;;;;;;;24.37;23.07;;;18.60;82.50;;;;;;5079428;28;20473;-75
2022/05/24 00:10:01;;;;;;;25.00;23.70;;;18.70;81.80;;;;;;5075075;28;20458;-71
2022/05/24 00:12:30;;;;;;;23.97;22.77;;;18.70;81.40;;;;;;5079156;28;20455;-73
2022/05/24 00:17:42;;;;;;;24.30;23.00;;;18.70;81.50;;;;;;5089880;28;20948;-71
2022/05/24 00:20:10;;;;;;;23.63;22.33;;;18.70;81.60;;;;;;5077093;28;20454;-71
2022/05/24 00:22:37;;;;;;;23.60;22.20;;;18.60;82.10;;;;;;5073407;28;20565;-71
2022/05/24 00:25:04;;;;;;;24.03;22.73;;;18.60;82.60;;;;;;5079420;28;20581;-71
2022/05/24 00:27:33;;;;;;;25.03;23.83;;;18.70;82.90;;;;;;5083036;28;20462;-72
2022/05/24 00:30:00;;;;;;;23.60;22.37;;;18.40;83.80;;;;;;5080516;28;20468;-71
2022/05/24 00:32:27;;;;;;;22.20;21.10;;;18.30;84.60;;;;;;5076127;28;20463;-72
2022/05/24 00:34:54;;;;;;;22.00;20.90;;;18.30;85.10;;;;;;5070537;28;20473;-71
2022/05/24 00:37:24;;;;;;;22.17;20.83;;;18.20;85.60;;;;;;5068643;28;20476;-72
2022/05/24 00:39:51;;;;;;;21.73;20.63;;;18.20;85.80;;;;;;5075839;28;20465;-72
2022/05/24 00:42:20;;;;;;;21.90;20.80;;;18.20;86.20;;;;;;5084415;28;20450;-72
2022/05/24 00:44:53;;;;;;;22.70;21.50;;;18.10;86.50;;;;;;5100331;28;20487;-72
2022/05/24 00:47:28;;;;;;;23.03;21.93;;;18.10;86.30;;;;;;5084544;28;20555;-72
2022/05/24 00:49:59;;;;;;;22.80;21.40;;;18.00;86.30;;;;;;5085303;28;20476;-72
2022/05/24 00:52:30;;;;;;;22.63;21.43;;;18.00;86.90;;;;;;5068776;28;20459;-71
2022/05/24 00:54:59;;;;;;;23.07;21.87;;;17.90;87.10;;;;;;5080789;28;20478;-72
2022/05/24 00:57:31;;;;;;;22.57;21.40;;;18.00;86.60;;;;;;5069636;28;20465;-71
2022/05/24 01:00:05;;;;;;;22.60;21.50;;;18.00;86.80;;;;;;5074891;28;20459;-72
2022/05/24 01:02:32;;;;;;;22.03;20.83;;;17.90;87.10;;;;;;5075821;28;20483;-72
2022/05/24 01:04:59;;;;;;;21.90;20.90;;;17.90;87.20;;;;;;5088301;28;20473;-71
2022/05/24 01:07:26;;;;;;;21.80;20.80;;;17.90;87.30;;;;;;5085547;28;20450;-73
2022/05/24 01:09:58;;;;;;;22.77;21.67;;;18.00;87.30;;;;;;5076536;28;20454;-73
2022/05/24 01:12:30;;;;;;;22.70;21.40;;;18.00;87.30;;;;;;5086428;28;20450;-73
2022/05/24 01:15:02;;;;;;;22.97;21.87;;;18.00;87.20;;;;;;5081271;28;20847;-76
2022/05/24 01:17:29;;;;;;;23.10;21.90;;;18.00;87.00;;;;;;5071009;28;20832;-74
2022/05/24 01:19:56;;;;;;;22.30;21.20;;;18.00;86.90;;;;;;5069350;28;20584;-74
2022/05/24 01:23:02;;;;;;;21.87;20.77;;;18.10;86.70;;;;;;5088077;28;20466;-73
2022/05/24 01:25:35;;;;;;;22.60;21.50;;;18.00;86.40;;;;;;5058264;28;20506;-73
2022/05/24 01:28:12;;;;;;;22.10;20.73;;;18.00;86.60;;;;;;5084038;28;20449;-77
2022/05/24 01:30:39;;;;;;;23.30;22.20;;;18.00;86.30;;;;;;5081622;28;20450;-72
2022/05/24 01:38:35;;;;;;;22.20;21.10;;;18.00;86.50;;;;;;5081076;28;20489;-72
2022/05/24 01:41:02;;;;;;;22.30;21.20;;;18.10;86.30;;;;;;5083442;28;20959;-71
2022/05/24 01:43:31;;;;;;;22.20;21.10;;;18.10;86.10;;;;;;5088244;28;21001;-72
2022/05/24 01:46:02;;;;;;;22.13;21.03;;;18.00;86.10;;;;;;5083600;28;20485;-71
2022/05/24 01:48:33;;;;;;;22.23;21.13;;;18.00;86.10;;;;;;5086809;28;20486;-72
2022/05/24 01:51:02;;;;;;;22.10;21.00;;;18.00;86.10;;;;;;5083430;28;20552;-72
2022/05/24 01:53:42;;;;;;;21.80;20.60;;;17.90;86.10;;;;;;5086259;28;20450;-72
2022/05/24 01:56:13;;;;;;;21.90;20.80;;;17.90;86.10;;;;;;5087766;28;20982;-71
2022/05/24 01:58:44;;;;;;;22.10;21.00;;;17.90;86.10;;;;;;5086162;28;20450;-71
2022/05/24 02:01:20;;;;;;;22.20;21.00;;;17.80;85.80;;;;;;5089690;28;20461;-71
2022/05/24 02:03:47;;;;;;;22.43;21.30;;;17.80;85.80;;;;;;5095694;28;20480;-72
2022/05/24 02:06:22;;;;;;;22.83;21.63;;;17.80;85.90;;;;;;5081344;28;20486;-72
2022/05/24 02:08:49;;;;;;;22.40;21.30;;;17.80;86.00;;;;;;5087941;28;20543;-72
2022/05/24 02:11:18;;;;;;;22.83;21.73;;;17.70;86.00;;;;;;5089170;28;20605;-71
2022/05/24 02:13:49;;;;;;;23.10;21.90;;;17.70;86.10;;;;;;5082075;28;20455;-72
2022/05/24 02:16:21;;;;;;;22.93;21.73;;;17.80;86.10;;;;;;5075535;28;20481;-72
2022/05/24 02:18:50;;;;;;;22.87;21.47;;;17.70;86.00;;;;;;5088066;28;20462;-71
2022/05/24 02:21:17;;;;;;;22.30;21.10;;;17.70;86.40;;;;;;5076073;28;20872;-71
2022/05/24 02:23:48;;;;;;;23.60;22.37;;;17.60;86.90;;;;;;5090635;28;20480;-72
2022/05/24 02:26:17;;;;;;;21.73;20.53;;;17.60;87.40;;;;;;5086947;28;20503;-72
2022/05/24 02:28:49;;;;;;;21.50;20.43;;;17.60;87.70;;;;;;5088518;28;20467;-72
2022/05/24 02:31:18;;;;;;;21.70;20.60;;;17.50;88.10;;;;;;5090563;28;20796;-72
2022/05/24 02:33:45;;;;;;;22.27;21.07;;;17.50;88.40;;;;;;5097915;28;20925;-72
2022/05/24 02:36:13;;;;;;;22.57;21.47;;;17.50;88.40;;;;;;5075812;28;20478;-72
2022/05/24 02:38:40;;;;;;;23.23;22.03;;;17.40;88.70;;;;;;5087096;28;20520;-72
2022/05/24 02:43:53;;;;;;;21.50;20.50;;;17.40;88.90;;;;;;5086830;28;20473;-72
2022/05/24 02:46:21;;;;;;;21.33;20.33;;;17.40;89.20;;;;;;5083861;28;20493;-71
2022/05/24 02:48:48;;;;;;;22.33;21.13;;;17.40;88.90;;;;;;5082868;28;21481;-72
2022/05/24 02:51:17;;;;;;;22.40;21.20;;;17.40;88.70;;;;;;5080637;28;20823;-71
2022/05/24 02:53:45;;;;;;;22.10;21.00;;;17.30;88.70;;;;;;5087838;28;20801;-71
2022/05/24 02:56:13;;;;;;;22.70;21.60;;;17.30;88.60;;;;;;5077808;28;20479;-71
2022/05/24 02:58:41;;;;;;;22.60;21.40;;;17.30;88.20;;;;;;5080441;28;20966;-71
2022/05/24 03:01:15;;;;;;;23.13;21.83;;;17.40;88.20;;;;;;5088630;28;20453;-72
2022/05/24 03:03:42;;;;;;;21.87;20.77;;;17.40;88.20;;;;;;5083812;28;20480;-71
2022/05/24 03:06:09;;;;;;;22.30;20.80;;;17.30;88.50;;;;;;5086648;28;20847;-71
2022/05/24 03:11:21;;;;;;;22.00;20.80;;;17.20;88.80;;;;;;5072478;28;20955;-71
2022/05/24 03:16:33;;;;;;;22.40;21.30;;;17.20;89.20;;;;;;5082976;28;20511;-71
2022/05/24 03:19:00;;;;;;;25.03;23.57;;;17.10;89.50;;;;;;5091366;28;20461;-71
2022/05/24 03:21:27;;;;;;;22.80;21.70;;;17.10;89.50;;;;;;5085939;28;22349;-72
2022/05/24 03:23:54;;;;;;;24.37;23.17;;;17.20;89.10;;;;;;5081293;28;20482;-72
2022/05/24 03:26:21;;;;;;;23.37;22.07;;;17.20;89.20;;;;;;5090442;28;20567;-71
2022/05/24 03:28:48;;;;;;;25.30;24.00;;;17.20;89.30;;;;;;5085655;28;20458;-71
2022/05/24 03:31:16;;;;;;;22.47;21.27;;;17.10;89.60;;;;;;5080941;28;20556;-71
2022/05/24 03:33:44;;;;;;;23.97;22.70;;;17.00;89.90;;;;;;5080701;28;20449;-71
2022/05/24 03:36:11;;;;;;;22.50;21.40;;;17.10;89.90;;;;;;5088304;28;20526;-71
2022/05/24 03:38:38;;;;;;;23.50;22.20;;;17.00;90.00;;;;;;5090700;28;20840;-71
2022/05/24 03:41:05;;;;;;;23.40;22.20;;;17.10;90.00;;;;;;5071774;28;20467;-72
2022/05/24 03:43:33;;;;;;;22.93;21.63;;;17.10;89.70;;;;;;5085110;28;20582;-71
2022/05/24 03:46:01;;;;;;;24.00;22.40;;;17.10;89.30;;;;;;5083317;28;20489;-72
2022/05/24 03:48:28;;;;;;;23.50;22.17;;;17.10;89.70;;;;;;5079349;28;20462;-72
2022/05/24 03:50:57;;;;;;;21.43;20.30;;;17.00;89.70;;;;;;5091804;28;20551;-76
2022/05/24 03:53:24;;;;;;;23.00;21.80;;;17.10;89.60;;;;;;5082881;28;20470;-76
2022/05/24 03:55:51;;;;;;;23.20;22.00;;;17.00;89.60;;;;;;5082389;28;20500;-73
2022/05/24 03:58:18;;;;;;;22.37;21.27;;;17.10;89.50;;;;;;5088647;28;20459;-74
2022/05/24 04:00:45;;;;;;;22.57;21.37;;;17.20;89.30;;;;;;5083106;28;20451;-76
2022/05/24 04:03:13;;;;;;;22.27;21.17;;;17.30;89.00;;;;;;5079342;28;20449;-79
2022/05/24 04:05:41;;;;;;;22.33;21.13;;;17.30;88.80;;;;;;5081774;28;20480;-77
2022/05/24 04:08:10;;;;;;;22.37;21.20;;;17.30;88.80;;;;;;5086667;28;20939;-75
2022/05/24 04:10:37;;;;;;;21.87;20.77;;;17.30;88.70;;;;;;5104243;28;20457;-73
2022/05/24 04:13:05;;;;;;;23.03;21.83;;;17.30;88.90;;;;;;5091356;27;20581;-73
2022/05/24 04:15:32;;;;;;;23.47;22.27;;;17.30;88.80;;;;;;5079771;28;20470;-74
2022/05/24 04:17:59;;;;;;;24.93;23.60;;;17.30;88.80;;;;;;5086431;28;20458;-74
2022/05/24 04:20:28;;;;;;;23.00;21.80;;;17.30;88.80;;;;;;5087516;28;20464;-73
2022/05/24 04:22:56;;;;;;;23.97;22.77;;;17.30;88.70;;;;;;5085592;28;20469;-74
2022/05/24 04:25:25;;;;;;;21.83;20.73;;;17.30;89.10;;;;;;5086199;28;20487;-76
2022/05/24 04:27:53;;;;;;;22.40;20.93;;;17.30;89.10;;;;;;5086194;28;20998;-73
2022/05/24 04:30:20;;;;;;;22.87;21.77;;;17.40;88.90;;;;;;5084729;28;20461;-77
2022/05/24 04:32:47;;;;;;;22.90;21.73;;;17.50;88.20;;;;;;5079686;28;20459;-73
2022/05/24 04:35:14;;;;;;;23.03;21.83;;;17.50;88.30;;;;;;5071435;28;20477;-76
2022/05/24 04:37:41;;;;;;;24.17;22.87;;;17.60;88.30;;;;;;5069902;28;20544;-76
2022/05/24 04:40:09;;;;;;;23.90;22.40;;;17.70;87.60;;;;;;5086332;28;20472;-74
2022/05/24 04:42:36;;;;;;;24.80;23.30;;;17.80;87.30;;;;;;5079190;28;20457;-74
2022/05/24 04:45:08;;;;;;;22.60;21.40;;;17.80;87.30;;;;;;5077128;28;20485;-73
2022/05/24 04:47:35;;;;;;;24.80;23.50;;;17.90;86.80;;;;;;5073826;28;20455;-76
2022/05/24 04:50:07;;;;;;;22.80;21.60;;;17.90;86.10;;;;;;5079070;28;20457;-74
2022/05/24 04:52:36;;;;;;;21.50;20.30;;;18.00;85.70;;;;;;5079515;28;20462;-73
2022/05/24 04:55:05;;;;;;;24.10;22.70;;;18.20;84.80;;;;;;5077878;28;21074;-73
2022/05/24 04:57:33;;;;;;;23.60;22.30;;;18.20;84.30;;;;;;5083934;28;20533;-73
2022/05/24 05:00:01;;;;;;;23.67;22.37;;;18.10;84.20;;;;;;5078178;28;20462;-71
2022/05/24 05:02:29;;;;;;;26.87;25.47;;;18.20;84.30;;;;;;5076710;28;20493;-77
2022/05/24 05:04:55;;;;;;;24.50;23.20;;;18.20;84.60;;;;;;5085297;28;20493;-75
2022/05/24 05:07:23;;;;;;;25.47;24.07;;;18.20;84.70;;;;;;5078643;28;20549;-77
2022/05/24 05:09:51;;;;;;;24.60;23.20;;;18.20;84.90;;;;;;5080609;28;20479;-76
2022/05/24 05:12:19;;;;;;;24.43;23.03;;;18.20;85.10;;;;;;5086130;28;20469;-75
2022/05/24 05:14:47;;;;;;;24.40;23.10;;;18.30;84.90;;;;;;5089554;28;20473;-73
2022/05/24 05:17:16;;;;;;;24.17;22.87;;;18.50;84.60;;;;;;5075597;28;20455;-80
2022/05/24 05:19:43;;;;;;;24.27;22.87;;;18.60;83.50;;;;;;5080672;28;20534;-73
2022/05/24 05:22:10;;;;;;;23.70;22.40;;;18.70;82.30;;;;;;5081362;28;20469;-74
2022/05/24 05:24:37;;;;;;;24.00;22.80;;;18.80;81.50;;;;;;5079425;28;20560;-74
2022/05/24 05:27:05;;;;;;;24.80;23.30;;;18.80;80.90;;;;;;5086737;28;20482;-77
2022/05/24 05:32:26;;;;;;;25.23;23.83;;;19.00;79.90;;;;;;5078858;28;20469;-73
2022/05/24 05:34:54;;;;;;;25.90;24.30;;;19.10;79.40;;;;;;5075495;28;20478;-73
2022/05/24 05:37:21;;;;;;;25.00;23.70;;;19.20;79.10;;;;;;5085572;28;20818;-73
2022/05/24 05:39:48;;;;;;;28.90;27.43;;;19.30;78.70;;;;;;5086997;28;20466;-72
2022/05/24 05:42:15;;;;;;;24.93;23.40;;;19.40;79.00;;;;;;5085818;28;20462;-72
2022/05/24 05:44:42;;;;;;;25.57;24.10;;;19.50;78.80;;;;;;5082174;28;20478;-72
2022/05/24 05:47:09;;;;;;;27.80;26.30;;;19.60;77.80;;;;;;5095387;28;20466;-73
2022/05/24 05:49:47;;;;;;;28.00;26.53;;;19.70;77.30;;;;;;5088880;28;20460;-75
2022/05/24 05:52:14;;;;;;;32.17;30.47;;;19.80;76.80;;;;;;5088013;28;20548;-77
2022/05/24 05:54:42;;;;;;;26.50;25.10;;;19.90;76.20;;;;;;5086341;28;20466;-77
2022/05/24 05:57:10;;;;;;;28.60;26.80;;;20.00;75.20;;;;;;5081726;28;20463;-73
2022/05/24 05:59:39;;;;;;;27.60;26.07;;;20.10;74.80;;;;;;5080265;28;20467;-74
2022/05/24 06:02:07;;;;;;;30.87;29.17;;;20.20;74.10;;;;;;5075278;28;20458;-74
2022/05/24 06:04:35;;;;;;;27.83;26.23;;;20.20;73.40;;;;;;5071192;28;20579;-76
2022/05/24 06:07:04;;;;;;;28.23;26.40;;;20.20;73.10;;;;;;5086146;28;20553;-76
2022/05/24 06:09:31;;;;;;;26.83;25.43;;;20.30;72.30;;;;;;5078443;28;20519;-76
2022/05/24 06:11:59;;;;;;;27.03;25.23;;;20.40;72.10;;;;;;5093284;28;20463;-71
2022/05/24 06:14:26;;;;;;;27.87;26.37;;;20.60;70.80;;;;;;5077162;28;20454;-73
2022/05/24 06:16:53;;;;;;;30.73;29.13;;;20.70;70.30;;;;;;5076737;28;20518;-72
2022/05/24 06:19:19;;;;;;;28.10;26.50;;;20.70;70.50;;;;;;5087456;28;20820;-72
2022/05/24 06:21:46;;;;;;;29.77;27.97;;;20.80;71.60;;;;;;5087795;28;20464;-73
2022/05/24 06:24:15;;;;;;;28.07;26.27;;;20.90;71.00;;;;;;5088432;28;20482;-73
2022/05/24 06:26:43;;;;;;;27.70;26.00;;;21.10;69.70;;;;;;5104559;28;20467;-73
2022/05/24 06:29:10;;;;;;;27.57;25.90;;;21.20;68.60;;;;;;5093401;28;20517;-72
2022/05/24 06:31:37;;;;;;;28.60;27.00;;;21.40;68.20;;;;;;5084551;28;20544;-73
2022/05/24 06:34:04;;;;;;;28.67;26.87;;;21.40;67.80;;;;;;5078618;28;20454;-72
2022/05/24 06:36:30;;;;;;;27.10;25.50;;;21.30;67.70;;;;;;5082919;28;20519;-70
2022/05/24 06:38:57;;;;;;;27.30;25.70;;;21.30;67.60;;;;;;5095326;28;21013;-70
2022/05/24 06:41:26;;;;;;;27.27;25.67;;;21.40;67.20;;;;;;5087932;28;20453;-71
2022/05/24 06:43:53;;;;;;;31.43;29.63;;;21.30;67.10;;;;;;5080400;28;20461;-76
2022/05/24 06:46:21;;;;;;;27.27;25.47;;;21.30;67.60;;;;;;5087462;28;20910;-73
2022/05/24 06:48:48;;;;;;;29.80;27.90;;;21.30;67.50;;;;;;5085472;28;20457;-74
2022/05/24 06:51:17;;;;;;;27.10;25.60;;;21.40;67.30;;;;;;5099914;28;20995;-77
2022/05/24 06:53:46;;;;;;;26.50;25.10;;;21.40;67.70;;;;;;5090806;28;20464;-76
2022/05/24 06:56:14;;;;;;;29.83;28.23;;;21.20;67.70;;;;;;5095497;28;20498;-75
2022/05/24 06:58:44;;;;;;;28.13;26.63;;;21.10;67.70;;;;;;5087412;28;20465;-73
2022/05/24 07:03:58;;;;;;;30.03;28.40;;;21.10;67.90;;;;;;5073362;28;20834;-72
2022/05/24 07:06:25;;;;;;;30.30;28.53;;;21.00;67.80;;;;;;5097530;28;20485;-71
2022/05/24 07:08:53;;;;;;;30.50;28.60;;;20.90;67.50;;;;;;5088617;28;20470;-73
2022/05/24 07:11:22;;;;;;;27.00;25.20;;;20.70;68.00;;;;;;5088714;28;20533;-71
2022/05/24 07:13:50;;;;;;;35.93;33.73;;;19.80;64.70;;;;;;5086988;28;20457;-71
2022/05/24 07:16:17;;;;;;;38.33;36.03;;;17.90;73.60;;;;;;5098722;28;20473;-74
2022/05/24 07:18:44;;;;;;;39.60;37.30;;;16.40;78.20;;;;;;5102823;28;20455;-72
2022/05/24 07:21:11;;;;;;;33.90;31.80;;;15.90;80.90;;;;;;5083280;28;20518;-73
2022/05/24 07:23:38;;;;;;;33.27;31.00;;;15.70;81.90;;;;;;5090448;28;20989;-74
2022/05/24 07:26:12;;;;;;;30.97;29.27;;;15.60;83.70;;;;;;5083123;28;21010;-72
2022/05/24 07:28:39;;;;;;;28.60;26.80;;;15.60;84.20;;;;;;5080438;28;20554;-72
2022/05/24 07:31:07;;;;;;;27.27;25.57;;;15.60;83.50;;;;;;5085175;28;20460;-73
2022/05/24 07:33:34;;;;;;;27.60;25.80;;;15.80;83.50;;;;;;5096451;28;20462;-74
2022/05/24 07:36:01;;;;;;;27.27;25.77;;;15.90;83.60;;;;;;5089048;28;20484;-74
2022/05/24 07:38:28;;;;;;;23.10;21.80;;;16.10;84.10;;;;;;5082165;28;20454;-71
2022/05/24 07:46:27;;;;;;;24.10;22.70;;;16.60;82.20;;;;;;5084427;28;20477;-71
2022/05/24 07:48:54;;;;;;;25.50;24.00;;;16.80;81.80;;;;;;5089676;28;20464;-72
2022/05/24 07:51:21;;;;;;;24.90;23.43;;;17.10;80.20;;;;;;5078782;28;20476;-73
2022/05/24 07:53:47;;;;;;;24.10;22.90;;;17.20;80.10;;;;;;5076917;28;20459;-73
2022/05/24 07:56:15;;;;;;;26.00;24.60;;;17.30;79.20;;;;;;5070960;28;20478;-72
2022/05/24 07:58:43;;;;;;;25.03;23.67;;;17.50;79.10;;;;;;5085210;28;20898;-73
2022/05/24 08:01:10;;;;;;;26.70;25.20;;;17.70;77.80;;;;;;5085912;28;20459;-71
2022/05/24 08:03:39;;;;;;;24.70;23.20;;;17.90;76.90;;;;;;5079875;27;20464;-71
2022/05/24 08:06:07;;;;;;;25.13;23.43;;;18.30;75.10;;;;;;5094722;28;20506;-72
2022/05/24 08:08:34;;;;;;;25.43;23.53;;;18.60;75.80;;;;;;5088222;28;20458;-73
2022/05/24 08:11:02;;;;;;;24.30;23.00;;;18.70;72.20;;;;;;5085784;28;20453;-72
2022/05/24 08:13:29;;;;;;;24.53;23.23;;;18.70;72.10;;;;;;5082175;28;20824;-73
2022/05/24 08:15:57;;;;;;;25.33;23.83;;;18.80;72.50;;;;;;5087845;28;20478;-74
2022/05/24 08:18:26;;;;;;;24.33;23.03;;;18.90;71.80;;;;;;5101941;28;20490;-77
2022/05/24 08:20:55;;;;;;;24.43;23.13;;;19.00;72.10;;;;;;5088069;28;20493;-75
2022/05/24 08:23:26;;;;;;;25.33;23.93;;;18.90;71.20;;;;;;5087303;28;20453;-74
2022/05/24 08:25:56;;;;;;;25.30;23.83;;;19.10;72.20;;;;;;5096290;28;20519;-76
2022/05/24 08:28:23;;;;;;;25.10;23.50;;;19.30;71.30;;;;;;5087685;28;20540;-75
2022/05/24 08:30:53;;;;;;;27.23;25.53;;;19.60;70.90;;;;;;5087531;28;20533;-76
2022/05/24 08:33:22;;;;;;;26.60;24.87;;;19.70;69.30;;;;;;5099511;28;20567;-71
2022/05/24 08:35:50;;;;;;;27.00;25.60;;;19.70;69.30;;;;;;5104650;28;20476;-72
2022/05/24 08:38:18;;;;;;;25.80;24.37;;;19.40;69.30;;;;;;5085147;28;20494;-71
2022/05/24 08:40:47;;;;;;;25.90;24.40;;;19.20;71.10;;;;;;5087526;28;20465;-72
2022/05/24 08:43:53;;;;;;;26.53;25.03;;;19.20;70.80;;;;;;5090354;28;20464;-72
2022/05/24 08:49:23;;;;;;;25.63;23.93;;;19.10;70.30;;;;;;5094502;28;20566;-74
2022/05/24 08:51:55;;;;;;;26.27;24.77;;;19.10;69.90;;;;;;5074555;27;20454;-73
2022/05/24 08:54:32;;;;;;;26.87;25.47;;;19.40;70.00;;;;;;5096002;28;20531;-74
2022/05/24 08:57:03;;;;;;;26.10;24.70;;;19.50;69.10;;;;;;5078365;28;20453;-73
2022/05/24 08:59:35;;;;;;;25.70;24.30;;;19.60;68.90;;;;;;5088561;28;20466;-73
2022/05/24 09:02:02;;;;;;;25.33;24.03;;;19.70;67.20;;;;;;5078992;28;20501;-76
2022/05/24 09:04:31;;;;;;;25.37;23.90;;;19.80;66.00;;;;;;5082713;28;21529;-73
2022/05/24 09:07:04;;;;;;;25.20;23.80;;;19.90;65.50;;;;;;5086394;28;20481;-77
2022/05/24 09:09:52;;;;;;;23.90;22.60;;;20.10;64.70;;;;;;5082824;28;20851;-73
2022/05/24 09:12:34;;;;;;;24.90;23.50;;;20.20;63.40;;;;;;5075324;28;20462;-79
2022/05/24 09:15:09;;;;;;;24.50;23.20;;;20.30;62.90;;;;;;5086011;28;20893;-76
2022/05/24 09:17:46;;;;;;;25.17;23.87;;;20.50;64.10;;;;;;5107172;28;20468;-77
2022/05/24 09:20:14;;;;;;;26.03;24.63;;;20.80;63.50;;;;;;5091651;28;20511;-74
2022/05/24 09:22:41;;;;;;;25.20;23.60;;;21.20;62.60;;;;;;5080564;28;20458;-77
2022/05/24 09:25:10;;;;;;;24.30;23.00;;;21.30;59.50;;;;;;5069344;28;20565;-77
2022/05/24 09:27:51;;;;;;;24.30;23.00;;;20.80;61.40;;;;;;5087000;28;20463;-78
2022/05/24 09:30:25;;;;;;;25.00;23.70;;;20.70;62.30;;;;;;5086060;28;21007;-77
2022/05/24 09:32:53;;;;;;;24.60;23.30;;;20.80;61.30;;;;;;5094331;28;20454;-76
2022/05/24 09:35:25;;;;;;;24.83;23.40;;;20.50;60.70;;;;;;5085245;28;20576;-76
2022/05/24 09:38:13;;;;;;;24.73;23.40;;;20.20;58.80;;;;;;5079445;28;20455;-76
2022/05/24 09:40:54;;;;;;;25.23;23.80;;;20.10;59.50;;;;;;5088276;28;20461;-74
2022/05/24 09:43:26;;;;;;;26.27;24.80;;;19.90;60.30;;;;;;5087655;28;20800;-74
2022/05/24 09:45:57;;;;;;;26.50;25.00;;;19.30;62.20;;;;;;5087972;28;20491;-75
2022/05/24 09:48:28;;;;;;;26.20;24.70;;;19.20;61.40;;;;;;5090397;28;20447;-75
2022/05/24 09:50:58;;;;;;;25.97;24.47;;;19.40;62.30;;;;;;5088251;28;20454;-75
2022/05/24 09:53:27;;;;;;;25.50;24.10;;;19.70;61.50;;;;;;5088142;28;20457;-76
2022/05/24 09:55:59;;;;;;;25.93;24.53;;;19.90;61.40;;;;;;5080927;28;20470;-77
2022/05/24 09:58:32;;;;;;;25.10;23.80;;;19.80;61.20;;;;;;5075363;28;20461;-76
2022/05/24 10:01:02;;;;;;;27.40;26.00;;;19.40;61.00;;;;;;5086135;28;20553;-75
2022/05/24 10:03:33;;;;;;;25.13;23.63;;;19.10;61.60;;;;;;5086700;28;20457;-76
2022/05/24 10:06:12;;;;;;;25.77;24.27;;;19.00;62.30;;;;;;5086719;28;20481;-74
2022/05/24 10:08:43;;;;;;;25.03;23.73;;;19.10;62.30;;;;;;5087904;28;20461;-74
2022/05/24 10:11:22;;;;;;;24.40;23.10;;;19.30;60.80;;;;;;5088430;28;20951;-74
2022/05/24 10:14:10;;;;;;;25.13;23.73;;;19.80;60.70;;;;;;5098252;28;20461;-74
2022/05/24 10:16:44;;;;;;;25.20;23.90;;;20.00;58.90;;;;;;5090482;28;20468;-74
2022/05/24 10:19:28;;;;;;;25.10;23.80;;;20.20;59.00;;;;;;5090020;28;20935;-74
2022/05/24 10:22:03;;;;;;;24.67;23.30;;;20.40;57.70;;;;;;5090290;28;20453;-74
2022/05/24 10:24:40;;;;;;;25.70;24.30;;;20.50;57.20;;;;;;5092096;28;20472;-74
2022/05/24 10:27:14;;;;;;;25.73;24.33;;;20.60;53.10;;;;;;5089233;28;20548;-74
2022/05/24 10:29:51;;;;;;;26.10;24.50;;;20.10;54.30;;;;;;5075575;28;20470;-74
2022/05/24 10:38:21;;;;;;;23.77;22.47;;;19.90;54.00;;;;;;5085997;28;20866;-76
2022/05/24 10:41:03;;;;;;;28.47;26.97;;;19.80;55.30;;;;;;5089302;28;20460;-75
2022/05/24 10:44:01;;;;;;;25.07;23.73;;;20.00;55.50;;;;;;5080786;28;20453;-75
2022/05/24 10:46:34;;;;;;;25.13;23.63;;;20.40;56.40;;;;;;5082720;28;20487;-75
2022/05/24 10:49:07;;;;;;;24.63;23.20;;;20.50;54.80;;;;;;5076271;28;20561;-76
2022/05/24 10:51:39;;;;;;;23.93;22.63;;;20.60;55.30;;;;;;5071344;28;20508;-77
2022/05/24 10:54:12;;;;;;;27.40;26.00;;;20.60;54.10;;;;;;5081543;28;20450;-76
2022/05/24 10:56:46;;;;;;;24.30;23.00;;;20.60;53.80;;;;;;5089142;28;20486;-76
2022/05/24 10:59:20;;;;;;;24.93;23.63;;;20.70;54.60;;;;;;5081393;28;20458;-75
2022/05/24 11:01:54;;;;;;;25.37;23.97;;;20.70;54.00;;;;;;5086322;28;20456;-75
2022/05/24 11:04:25;;;;;;;25.70;24.20;;;20.60;54.00;;;;;;5090853;28;20475;-75
2022/05/24 11:06:59;;;;;;;28.10;26.70;;;20.60;55.10;;;;;;5109244;28;20486;-75
2022/05/24 11:09:29;;;;;;;25.90;24.50;;;20.60;55.10;;;;;;5084153;28;20465;-75
2022/05/24 11:12:00;;;;;;;24.73;23.43;;;20.70;55.80;;;;;;5088947;28;21041;-75
2022/05/24 11:14:36;;;;;;;25.53;24.13;;;21.00;54.60;;;;;;5103576;28;20543;-75
2022/05/24 11:17:04;;;;;;;28.60;27.20;;;21.10;53.40;;;;;;5090505;27;20454;-75
2022/05/24 11:19:35;;;;;;;26.97;25.27;;;21.30;53.30;;;;;;5086923;28;20446;-75
2022/05/24 11:22:11;;;;;;;26.03;24.63;;;21.50;52.80;;;;;;5092324;28;21032;-75
2022/05/24 11:24:43;;;;;;;26.30;24.70;;;21.80;52.80;;;;;;5077194;28;20477;-76
2022/05/24 11:27:14;;;;;;;24.80;23.40;;;22.10;52.10;;;;;;5104742;28;21010;-75
2022/05/24 11:29:48;;;;;;;25.90;24.40;;;22.10;50.70;;;;;;5087602;28;20458;-75
2022/05/24 11:32:20;;;;;;;26.33;24.73;;;21.80;51.50;;;;;;5104209;28;20453;-75
2022/05/24 11:34:58;;;;;;;27.03;25.53;;;21.90;52.00;;;;;;5088553;28;20482;-75
2022/05/24 11:37:30;;;;;;;25.40;24.00;;;21.20;53.70;;;;;;5094947;28;20469;-75
2022/05/24 11:39:57;;;;;;;28.07;26.47;;;21.20;54.20;;;;;;5072190;28;20549;-74
2022/05/24 11:42:43;;;;;;;25.13;23.53;;;21.20;54.50;;;;;;5095722;28;20842;-73
2022/05/24 11:45:56;;;;;;;26.63;24.83;;;20.90;53.80;;;;;;5109131;28;21047;-75
2022/05/24 11:48:43;;;;;;;25.63;24.13;;;20.60;55.20;;;;;;5072402;28;20515;-74
2022/05/24 11:51:33;;;;;;;25.03;23.50;;;20.50;54.90;;;;;;5107916;28;20464;-77
2022/05/24 11:54:01;;;;;;;25.30;23.90;;;20.30;55.30;;;;;;5082995;28;20457;-73
2022/05/24 11:56:29;;;;;;;27.00;25.30;;;20.40;55.10;;;;;;5099668;28;20472;-74
2022/05/24 11:58:59;;;;;;;26.17;24.67;;;20.40;55.70;;;;;;5095707;28;20461;-79
2022/05/24 12:01:43;;;;;;;25.97;24.47;;;20.60;55.40;;;;;;5073208;28;20968;-76
2022/05/24 12:10:49;;;;;;;26.00;24.50;;;20.50;56.40;;;;;;5082383;28;20446;-77
2022/05/24 12:13:43;;;;;;;25.70;24.30;;;20.80;56.00;;;;;;5046521;28;20493;-79
2022/05/24 12:16:43;;;;;;;26.07;24.67;;;21.00;56.00;;;;;;5046225;28;21047;-78
2022/05/24 12:19:12;;;;;;;25.47;24.07;;;21.30;54.70;;;;;;5079563;28;20460;-78
2022/05/24 12:22:01;;;;;;;27.00;25.40;;;21.40;54.80;;;;;;5088987;28;20480;-78
2022/05/24 12:24:54;;;;;;;26.77;25.03;;;21.80;53.40;;;;;;5071074;28;20870;-77
2022/05/24 12:27:35;;;;;;;25.70;24.33;;;21.60;53.00;;;;;;5078477;28;20493;-79
2022/05/24 12:30:30;;;;;;;26.50;24.80;;;21.70;53.70;;;;;;5085770;28;20445;-77
2022/05/24 12:33:09;;;;;;;28.07;26.47;;;22.00;53.70;;;;;;5092905;28;20491;-79
2022/05/24 12:35:37;;;;;;;30.37;28.70;;;22.30;53.60;;;;;;5094894;28;21032;-79
2022/05/24 12:38:18;;;;;;;25.27;23.87;;;22.60;53.60;;;;;;5089740;28;20450;-76
2022/05/24 12:40:45;;;;;;;26.13;24.70;;;22.80;50.00;;;;;;5097889;28;20985;-77
2022/05/24 12:43:17;;;;;;;28.10;26.60;;;22.70;50.20;;;;;;5099161;28;20481;-77
2022/05/24 12:45:47;;;;;;;30.07;28.47;;;22.70;50.00;;;;;;5082459;28;20473;-77
2022/05/24 12:48:34;;;;;;;25.03;23.73;;;22.60;50.60;;;;;;5105190;28;20950;-77
2022/05/24 12:51:02;;;;;;;28.83;27.33;;;22.90;49.90;;;;;;5090526;28;20512;-76
2022/05/24 12:53:31;;;;;;;30.23;28.73;;;23.30;48.30;;;;;;5086994;28;20450;-76
2022/05/24 12:56:04;;;;;;;25.40;24.00;;;23.30;47.70;;;;;;5087899;28;20579;-75
2022/05/24 12:58:34;;;;;;;25.90;24.50;;;23.40;47.40;;;;;;5091781;28;20895;-76
2022/05/24 13:01:14;;;;;;;26.90;25.40;;;23.40;48.00;;;;;;5080560;28;20477;-76
2022/05/24 13:04:00;;;;;;;27.10;25.60;;;23.60;48.10;;;;;;5088510;28;20888;-75
2022/05/24 13:06:29;;;;;;;25.80;24.30;;;23.50;48.30;;;;;;5090224;28;20494;-76
2022/05/24 13:09:16;;;;;;;26.13;24.63;;;23.60;46.70;;;;;;5108635;28;20562;-76
2022/05/24 13:11:49;;;;;;;28.00;26.50;;;23.30;47.10;;;;;;5090030;28;20492;-76
2022/05/24 13:14:36;;;;;;;28.17;26.53;;;22.70;47.40;;;;;;5094734;28;20463;-75
2022/05/24 13:17:05;;;;;;;25.20;23.80;;;22.10;48.20;;;;;;5078390;28;20855;-76
2022/05/24 13:19:45;;;;;;;28.37;26.67;;;21.60;50.30;;;;;;5086956;28;20462;-76
2022/05/24 13:22:14;;;;;;;26.77;25.17;;;20.60;53.10;;;;;;5098130;28;20453;-76
2022/05/24 13:24:56;;;;;;;26.50;24.83;;;20.40;54.10;;;;;;5108518;28;20483;-76
2022/05/24 13:27:23;;;;;;;28.00;26.30;;;20.60;53.90;;;;;;5108826;28;20715;-76
2022/05/24 13:35:32;;;;;;;26.60;25.17;;;20.60;54.30;;;;;;5090033;28;20515;-76